sensor_id;sensor_type;location;lat;lon;timestamp;temperature;humidity
5834;DHT22;2943;48.012;10.968;2022-11-14T00:00:14;3.50;99.90
5834;DHT22;2943;48.012;10.968;2022-11-14T00:02:41;3.50;99.90
5834;DHT22;2943;48.012;10.968;2022-11-14T00:05:08;3.50;99.90
5834;DHT22;2943;48.012;10.968;2022-11-14T00:07:35;3.50;99.90
5834;DHT22;2943;48.012;10.968;2022-11-14T00:10:04;3.50;99.90
5834;DHT22;2943;48.012;10.968;2022-11-14T00:12:31;3.40;99.90
5834;DHT22;2943;48.012;10.968;2022-11-14T00:14:58;3.40;99.90
5834;DHT22;2943;48.012;10.968;2022-11-14T00:17:25;3.40;99.90
5834;DHT22;2943;48.012;10.968;2022-11-14T00:19:52;3.40;99.90
5834;DHT22;2943;48.012;10.968;2022-11-14T00:22:19;3.40;99.90
5834;DHT22;2943;48.012;10.968;2022-11-14T00:24:46;3.40;99.90
5834;DHT22;2943;48.012;10.968;2022-11-14T00:27:15;3.40;99.90
5834;DHT22;2943;48.012;10.968;2022-11-14T00:29:42;3.40;99.90
5834;DHT22;2943;48.012;10.968;2022-11-14T00:32:09;3.50;99.90
5834;DHT22;2943;48.012;10.968;2022-11-14T00:34:36;3.50;99.90
5834;DHT22;2943;48.012;10.968;2022-11-14T00:37:03;3.40;99.90
5834;DHT22;2943;48.012;10.968;2022-11-14T00:39:30;3.40;99.90
5834;DHT22;2943;48.012;10.968;2022-11-14T00:41:57;3.30;99.90
5834;DHT22;2943;48.012;10.968;2022-11-14T00:44:25;3.30;99.90
5834;DHT22;2943;48.012;10.968;2022-11-14T00:46:52;3.10;99.90
5834;DHT22;2943;48.012;10.968;2022-11-14T00:49:19;3.00;99.90
5834;DHT22;2943;48.012;10.968;2022-11-14T00:51:46;2.90;99.90
5834;DHT22;2943;48.012;10.968;2022-11-14T00:54:14;2.80;99.90
5834;DHT22;2943;48.012;10.968;2022-11-14T00:56:40;2.60;99.90
5834;DHT22;2943;48.012;10.968;2022-11-14T00:59:08;2.40;99.90
5834;DHT22;2943;48.012;10.968;2022-11-14T01:01:36;2.30;99.90
5834;DHT22;2943;48.012;10.968;2022-11-14T01:04:03;2.20;99.90
5834;DHT22;2943;48.012;10.968;2022-11-14T01:06:30;2.20;99.90
5834;DHT22;2943;48.012;10.968;2022-11-14T01:08:57;2.20;99.90
5834;DHT22;2943;48.012;10.968;2022-11-14T01:11:24;2.30;99.90
5834;DHT22;2943;48.012;10.968;2022-11-14T01:13:51;2.20;99.90
5834;DHT22;2943;48.012;10.968;2022-11-14T01:16:19;2.20;99.90
5834;DHT22;2943;48.012;10.968;2022-11-14T01:18:47;2.20;99.90
5834;DHT22;2943;48.012;10.968;2022-11-14T01:21:15;2.00;99.90
5834;DHT22;2943;48.012;10.968;2022-11-14T01:23:41;1.90;99.90
5834;DHT22;2943;48.012;10.968;2022-11-14T01:26:11;2.00;99.90
5834;DHT22;2943;48.012;10.968;2022-11-14T01:28:38;2.00;99.90
5834;DHT22;2943;48.012;10.968;2022-11-14T01:31:10;2.00;99.90
5834;DHT22;2943;48.012;10.968;2022-11-14T01:33:37;2.10;99.90
5834;DHT22;2943;48.012;10.968;2022-11-14T01:36:06;2.10;99.90
5834;DHT22;2943;48.012;10.968;2022-11-14T01:38:33;2.10;99.90
5834;DHT22;2943;48.012;10.968;2022-11-14T01:41:01;2.00;99.90
5834;DHT22;2943;48.012;10.968;2022-11-14T01:43:30;1.90;99.90
5834;DHT22;2943;48.012;10.968;2022-11-14T01:46:00;1.90;99.90
5834;DHT22;2943;48.012;10.968;2022-11-14T01:48:34;1.90;99.90
5834;DHT22;2943;48.012;10.968;2022-11-14T01:51:09;1.90;99.90
5834;DHT22;2943;48.012;10.968;2022-11-14T01:53:39;1.90;99.90
5834;DHT22;2943;48.012;10.968;2022-11-14T01:56:09;2.00;99.90
5834;DHT22;2943;48.012;10.968;2022-11-14T01:58:39;2.10;99.90
5834;DHT22;2943;48.012;10.968;2022-11-14T02:01:06;2.10;99.90
5834;DHT22;2943;48.012;10.968;2022-11-14T02:03:36;2.20;99.90
5834;DHT22;2943;48.012;10.968;2022-11-14T02:06:10;2.10;99.90
5834;DHT22;2943;48.012;10.968;2022-11-14T02:08:39;2.20;99.90
5834;DHT22;2943;48.012;10.968;2022-11-14T02:11:09;2.20;99.90
5834;DHT22;2943;48.012;10.968;2022-11-14T02:13:36;2.20;99.90
5834;DHT22;2943;48.012;10.968;2022-11-14T02:16:03;2.30;99.90
5834;DHT22;2943;48.012;10.968;2022-11-14T02:18:30;2.30;99.90
5834;DHT22;2943;48.012;10.968;2022-11-14T02:20:59;2.30;99.90
5834;DHT22;2943;48.012;10.968;2022-11-14T02:23:27;2.40;99.90
5834;DHT22;2943;48.012;10.968;2022-11-14T02:25:55;2.40;99.90
5834;DHT22;2943;48.012;10.968;2022-11-14T02:28:22;2.40;99.90
5834;DHT22;2943;48.012;10.968;2022-11-14T02:30:49;2.50;99.90
5834;DHT22;2943;48.012;10.968;2022-11-14T02:33:16;2.50;99.90
5834;DHT22;2943;48.012;10.968;2022-11-14T02:35:43;2.60;99.90
5834;DHT22;2943;48.012;10.968;2022-11-14T02:38:11;2.60;99.90
5834;DHT22;2943;48.012;10.968;2022-11-14T02:40:38;2.70;99.90
5834;DHT22;2943;48.012;10.968;2022-11-14T02:43:05;2.70;99.90
5834;DHT22;2943;48.012;10.968;2022-11-14T02:45:32;2.80;99.90
5834;DHT22;2943;48.012;10.968;2022-11-14T02:47:59;2.90;99.90
5834;DHT22;2943;48.012;10.968;2022-11-14T02:50:26;2.90;99.90
5834;DHT22;2943;48.012;10.968;2022-11-14T02:52:53;2.90;99.90
5834;DHT22;2943;48.012;10.968;2022-11-14T02:55:22;2.90;99.90
5834;DHT22;2943;48.012;10.968;2022-11-14T02:57:49;3.00;99.90
5834;DHT22;2943;48.012;10.968;2022-11-14T03:00:17;3.00;99.90
5834;DHT22;2943;48.012;10.968;2022-11-14T03:02:44;3.10;99.90
5834;DHT22;2943;48.012;10.968;2022-11-14T03:05:10;3.10;99.90
5834;DHT22;2943;48.012;10.968;2022-11-14T03:07:37;3.00;99.90
5834;DHT22;2943;48.012;10.968;2022-11-14T03:10:05;3.10;99.90
5834;DHT22;2943;48.012;10.968;2022-11-14T03:12:34;3.10;99.90
5834;DHT22;2943;48.012;10.968;2022-11-14T03:15:00;3.10;99.90
5834;DHT22;2943;48.012;10.968;2022-11-14T03:17:30;3.10;99.90
5834;DHT22;2943;48.012;10.968;2022-11-14T03:19:57;3.20;99.90
5834;DHT22;2943;48.012;10.968;2022-11-14T03:22:24;3.20;99.90
5834;DHT22;2943;48.012;10.968;2022-11-14T03:24:51;3.30;99.90
5834;DHT22;2943;48.012;10.968;2022-11-14T03:27:18;3.30;99.90
5834;DHT22;2943;48.012;10.968;2022-11-14T03:29:46;3.20;99.90
5834;DHT22;2943;48.012;10.968;2022-11-14T03:32:14;3.30;99.90
5834;DHT22;2943;48.012;10.968;2022-11-14T03:34:41;3.30;99.90
5834;DHT22;2943;48.012;10.968;2022-11-14T03:37:08;3.30;99.90
5834;DHT22;2943;48.012;10.968;2022-11-14T03:39:35;3.40;99.90
5834;DHT22;2943;48.012;10.968;2022-11-14T03:42:02;3.40;99.90
5834;DHT22;2943;48.012;10.968;2022-11-14T03:44:29;3.30;99.90
5834;DHT22;2943;48.012;10.968;2022-11-14T03:46:57;3.40;99.90
5834;DHT22;2943;48.012;10.968;2022-11-14T03:49:24;3.40;99.90
5834;DHT22;2943;48.012;10.968;2022-11-14T03:51:51;3.50;99.90
5834;DHT22;2943;48.012;10.968;2022-11-14T03:54:18;3.50;99.90
5834;DHT22;2943;48.012;10.968;2022-11-14T03:56:45;3.60;99.90
5834;DHT22;2943;48.012;10.968;2022-11-14T03:59:12;3.60;99.90
5834;DHT22;2943;48.012;10.968;2022-11-14T04:01:39;3.60;99.90
5834;DHT22;2943;48.012;10.968;2022-11-14T04:04:09;3.60;99.90
5834;DHT22;2943;48.012;10.968;2022-11-14T04:06:36;3.70;99.90
5834;DHT22;2943;48.012;10.968;2022-11-14T04:09:03;3.70;99.90
5834;DHT22;2943;48.012;10.968;2022-11-14T04:11:30;3.70;99.90
5834;DHT22;2943;48.012;10.968;2022-11-14T04:13:57;3.70;99.90
5834;DHT22;2943;48.012;10.968;2022-11-14T04:16:24;3.70;99.90
5834;DHT22;2943;48.012;10.968;2022-11-14T04:18:51;3.70;99.90
5834;DHT22;2943;48.012;10.968;2022-11-14T04:21:20;3.80;99.90
5834;DHT22;2943;48.012;10.968;2022-11-14T04:23:47;3.80;99.90
5834;DHT22;2943;48.012;10.968;2022-11-14T04:26:13;3.80;99.90
5834;DHT22;2943;48.012;10.968;2022-11-14T04:28:40;3.80;99.90
5834;DHT22;2943;48.012;10.968;2022-11-14T04:31:07;3.80;99.90
5834;DHT22;2943;48.012;10.968;2022-11-14T04:33:34;3.80;99.90
5834;DHT22;2943;48.012;10.968;2022-11-14T04:36:01;3.80;99.90
5834;DHT22;2943;48.012;10.968;2022-11-14T04:38:29;3.80;99.90
5834;DHT22;2943;48.012;10.968;2022-11-14T04:40:56;3.80;99.90
5834;DHT22;2943;48.012;10.968;2022-11-14T04:43:23;3.80;99.90
5834;DHT22;2943;48.012;10.968;2022-11-14T04:45:50;3.80;99.90
5834;DHT22;2943;48.012;10.968;2022-11-14T04:48:17;3.80;99.90
5834;DHT22;2943;48.012;10.968;2022-11-14T04:50:44;3.90;99.90
5834;DHT22;2943;48.012;10.968;2022-11-14T04:53:11;3.90;99.90
5834;DHT22;2943;48.012;10.968;2022-11-14T04:55:39;3.90;99.90
5834;DHT22;2943;48.012;10.968;2022-11-14T04:58:07;3.90;99.90
5834;DHT22;2943;48.012;10.968;2022-11-14T05:00:34;3.90;99.90
5834;DHT22;2943;48.012;10.968;2022-11-14T05:03:01;3.90;99.90
5834;DHT22;2943;48.012;10.968;2022-11-14T05:05:28;3.70;99.90
5834;DHT22;2943;48.012;10.968;2022-11-14T05:07:55;3.70;99.90
5834;DHT22;2943;48.012;10.968;2022-11-14T05:10:22;3.70;99.90
5834;DHT22;2943;48.012;10.968;2022-11-14T05:12:53;3.70;99.90
5834;DHT22;2943;48.012;10.968;2022-11-14T05:15:22;3.70;99.90
5834;DHT22;2943;48.012;10.968;2022-11-14T05:17:49;3.80;99.90
5834;DHT22;2943;48.012;10.968;2022-11-14T05:20:16;3.80;99.90
5834;DHT22;2943;48.012;10.968;2022-11-14T05:22:43;3.80;99.90
5834;DHT22;2943;48.012;10.968;2022-11-14T05:25:10;3.90;99.90
5834;DHT22;2943;48.012;10.968;2022-11-14T05:27:37;3.90;99.90
5834;DHT22;2943;48.012;10.968;2022-11-14T05:30:06;3.90;99.90
5834;DHT22;2943;48.012;10.968;2022-11-14T05:32:34;3.90;99.90
5834;DHT22;2943;48.012;10.968;2022-11-14T05:35:01;3.90;99.90
5834;DHT22;2943;48.012;10.968;2022-11-14T05:37:29;3.90;99.90
5834;DHT22;2943;48.012;10.968;2022-11-14T05:39:56;3.90;99.90
5834;DHT22;2943;48.012;10.968;2022-11-14T05:42:22;3.90;99.90
5834;DHT22;2943;48.012;10.968;2022-11-14T05:44:49;3.90;99.90
5834;DHT22;2943;48.012;10.968;2022-11-14T05:47:17;3.80;99.90
5834;DHT22;2943;48.012;10.968;2022-11-14T05:49:44;3.70;99.90
5834;DHT22;2943;48.012;10.968;2022-11-14T05:52:11;3.70;99.90
5834;DHT22;2943;48.012;10.968;2022-11-14T05:54:39;3.70;99.90
5834;DHT22;2943;48.012;10.968;2022-11-14T05:57:06;3.70;99.90
5834;DHT22;2943;48.012;10.968;2022-11-14T05:59:33;3.70;99.90
5834;DHT22;2943;48.012;10.968;2022-11-14T06:02:00;3.70;99.90
5834;DHT22;2943;48.012;10.968;2022-11-14T06:04:28;3.70;99.90
5834;DHT22;2943;48.012;10.968;2022-11-14T06:06:55;3.80;99.90
5834;DHT22;2943;48.012;10.968;2022-11-14T06:09:22;3.80;99.90
5834;DHT22;2943;48.012;10.968;2022-11-14T06:11:49;3.80;99.90
5834;DHT22;2943;48.012;10.968;2022-11-14T06:14:18;3.80;99.90
5834;DHT22;2943;48.012;10.968;2022-11-14T06:16:45;3.80;99.90
5834;DHT22;2943;48.012;10.968;2022-11-14T06:19:12;3.80;99.90
5834;DHT22;2943;48.012;10.968;2022-11-14T06:21:40;3.80;99.90
5834;DHT22;2943;48.012;10.968;2022-11-14T06:24:07;3.80;99.90
5834;DHT22;2943;48.012;10.968;2022-11-14T06:26:34;3.70;99.90
5834;DHT22;2943;48.012;10.968;2022-11-14T06:29:01;3.70;99.90
5834;DHT22;2943;48.012;10.968;2022-11-14T06:31:28;3.70;99.90
5834;DHT22;2943;48.012;10.968;2022-11-14T06:33:55;3.70;99.90
5834;DHT22;2943;48.012;10.968;2022-11-14T06:36:22;3.70;99.90
5834;DHT22;2943;48.012;10.968;2022-11-14T06:38:50;3.70;99.90
5834;DHT22;2943;48.012;10.968;2022-11-14T06:41:19;3.70;99.90
5834;DHT22;2943;48.012;10.968;2022-11-14T06:43:48;3.70;99.90
5834;DHT22;2943;48.012;10.968;2022-11-14T06:46:19;3.60;99.90
5834;DHT22;2943;48.012;10.968;2022-11-14T06:48:46;3.60;99.90
5834;DHT22;2943;48.012;10.968;2022-11-14T06:51:15;3.60;99.90
5834;DHT22;2943;48.012;10.968;2022-11-14T06:53:42;3.50;99.90
5834;DHT22;2943;48.012;10.968;2022-11-14T06:56:12;3.50;99.90
5834;DHT22;2943;48.012;10.968;2022-11-14T06:58:40;3.50;99.90
5834;DHT22;2943;48.012;10.968;2022-11-14T07:01:10;3.50;99.90
5834;DHT22;2943;48.012;10.968;2022-11-14T07:03:37;3.50;99.90
5834;DHT22;2943;48.012;10.968;2022-11-14T07:06:06;3.70;99.90
5834;DHT22;2943;48.012;10.968;2022-11-14T07:08:33;3.90;99.90
5834;DHT22;2943;48.012;10.968;2022-11-14T07:11:01;4.10;99.90
5834;DHT22;2943;48.012;10.968;2022-11-14T07:13:30;4.20;99.90
5834;DHT22;2943;48.012;10.968;2022-11-14T07:15:57;4.30;99.90
5834;DHT22;2943;48.012;10.968;2022-11-14T07:18:24;4.40;99.90
5834;DHT22;2943;48.012;10.968;2022-11-14T07:20:56;4.50;99.90
5834;DHT22;2943;48.012;10.968;2022-11-14T07:23:23;4.60;99.90
5834;DHT22;2943;48.012;10.968;2022-11-14T07:25:51;4.60;99.90
5834;DHT22;2943;48.012;10.968;2022-11-14T07:28:17;4.70;99.90
5834;DHT22;2943;48.012;10.968;2022-11-14T07:30:46;4.70;99.90
5834;DHT22;2943;48.012;10.968;2022-11-14T07:33:13;4.80;99.90
5834;DHT22;2943;48.012;10.968;2022-11-14T07:35:40;4.90;99.90
5834;DHT22;2943;48.012;10.968;2022-11-14T07:38:06;4.90;99.90
5834;DHT22;2943;48.012;10.968;2022-11-14T07:40:33;4.90;99.90
5834;DHT22;2943;48.012;10.968;2022-11-14T07:43:01;4.90;99.90
5834;DHT22;2943;48.012;10.968;2022-11-14T07:45:28;5.00;99.90
5834;DHT22;2943;48.012;10.968;2022-11-14T07:47:57;5.00;99.90
5834;DHT22;2943;48.012;10.968;2022-11-14T07:50:24;5.00;99.90
5834;DHT22;2943;48.012;10.968;2022-11-14T07:52:52;5.00;99.90
5834;DHT22;2943;48.012;10.968;2022-11-14T07:55:20;5.00;99.90
5834;DHT22;2943;48.012;10.968;2022-11-14T07:57:47;5.00;99.90
5834;DHT22;2943;48.012;10.968;2022-11-14T08:00:18;5.10;99.90
5834;DHT22;2943;48.012;10.968;2022-11-14T08:02:45;5.10;99.90
5834;DHT22;2943;48.012;10.968;2022-11-14T08:05:14;5.10;99.90
5834;DHT22;2943;48.012;10.968;2022-11-14T08:07:41;5.00;99.90
5834;DHT22;2943;48.012;10.968;2022-11-14T08:10:08;4.90;99.90
5834;DHT22;2943;48.012;10.968;2022-11-14T08:12:36;4.90;99.90
5834;DHT22;2943;48.012;10.968;2022-11-14T08:15:05;5.00;99.90
5834;DHT22;2943;48.012;10.968;2022-11-14T08:17:32;5.00;99.90
5834;DHT22;2943;48.012;10.968;2022-11-14T08:19:59;5.10;99.90
5834;DHT22;2943;48.012;10.968;2022-11-14T08:22:27;5.10;99.90
5834;DHT22;2943;48.012;10.968;2022-11-14T08:24:55;5.20;99.90
5834;DHT22;2943;48.012;10.968;2022-11-14T08:27:23;5.20;99.90
5834;DHT22;2943;48.012;10.968;2022-11-14T08:29:50;5.30;99.90
5834;DHT22;2943;48.012;10.968;2022-11-14T08:32:17;5.40;99.90
5834;DHT22;2943;48.012;10.968;2022-11-14T08:34:44;5.40;99.90
5834;DHT22;2943;48.012;10.968;2022-11-14T08:37:11;5.40;99.90
5834;DHT22;2943;48.012;10.968;2022-11-14T08:39:39;5.40;99.90
5834;DHT22;2943;48.012;10.968;2022-11-14T08:42:06;5.50;99.90
5834;DHT22;2943;48.012;10.968;2022-11-14T08:44:35;5.50;99.90
5834;DHT22;2943;48.012;10.968;2022-11-14T08:47:02;5.50;99.90
5834;DHT22;2943;48.012;10.968;2022-11-14T08:49:28;5.60;99.90
5834;DHT22;2943;48.012;10.968;2022-11-14T08:51:55;5.60;99.90
5834;DHT22;2943;48.012;10.968;2022-11-14T08:54:22;5.70;99.90
5834;DHT22;2943;48.012;10.968;2022-11-14T08:56:50;5.70;99.90
5834;DHT22;2943;48.012;10.968;2022-11-14T08:59:18;5.80;99.90
5834;DHT22;2943;48.012;10.968;2022-11-14T09:01:44;5.80;99.90
5834;DHT22;2943;48.012;10.968;2022-11-14T09:04:11;5.90;99.90
5834;DHT22;2943;48.012;10.968;2022-11-14T09:06:38;5.90;99.90
5834;DHT22;2943;48.012;10.968;2022-11-14T09:09:05;6.00;99.90
5834;DHT22;2943;48.012;10.968;2022-11-14T09:11:32;6.10;99.90
5834;DHT22;2943;48.012;10.968;2022-11-14T09:14:00;6.20;99.90
5834;DHT22;2943;48.012;10.968;2022-11-14T09:16:27;6.20;99.90
5834;DHT22;2943;48.012;10.968;2022-11-14T09:18:54;6.30;99.90
5834;DHT22;2943;48.012;10.968;2022-11-14T09:21:21;6.40;99.90
5834;DHT22;2943;48.012;10.968;2022-11-14T09:23:48;6.50;99.90
5834;DHT22;2943;48.012;10.968;2022-11-14T09:26:15;6.70;99.90
5834;DHT22;2943;48.012;10.968;2022-11-14T09:28:44;6.80;99.90
5834;DHT22;2943;48.012;10.968;2022-11-14T09:31:13;6.90;99.90
5834;DHT22;2943;48.012;10.968;2022-11-14T09:33:40;7.00;99.90
5834;DHT22;2943;48.012;10.968;2022-11-14T09:36:09;7.10;99.90
5834;DHT22;2943;48.012;10.968;2022-11-14T09:38:40;7.20;99.90
5834;DHT22;2943;48.012;10.968;2022-11-14T09:41:25;7.30;99.90
5834;DHT22;2943;48.012;10.968;2022-11-14T09:47:02;7.50;99.90
5834;DHT22;2943;48.012;10.968;2022-11-14T09:49:34;7.60;99.90
5834;DHT22;2943;48.012;10.968;2022-11-14T09:52:09;7.70;99.90
5834;DHT22;2943;48.012;10.968;2022-11-14T09:54:43;7.70;99.90
5834;DHT22;2943;48.012;10.968;2022-11-14T09:57:14;7.80;99.90
5834;DHT22;2943;48.012;10.968;2022-11-14T09:59:42;7.90;99.90
5834;DHT22;2943;48.012;10.968;2022-11-14T10:05:35;8.10;99.90
5834;DHT22;2943;48.012;10.968;2022-11-14T10:08:19;8.20;99.90
5834;DHT22;2943;48.012;10.968;2022-11-14T10:10:52;8.30;99.90
5834;DHT22;2943;48.012;10.968;2022-11-14T10:13:41;8.40;99.90
5834;DHT22;2943;48.012;10.968;2022-11-14T10:16:17;8.50;99.90
5834;DHT22;2943;48.012;10.968;2022-11-14T10:18:57;8.60;99.90
5834;DHT22;2943;48.012;10.968;2022-11-14T10:21:43;8.60;99.90
5834;DHT22;2943;48.012;10.968;2022-11-14T10:24:26;8.70;99.90
5834;DHT22;2943;48.012;10.968;2022-11-14T10:27:00;8.80;99.90
5834;DHT22;2943;48.012;10.968;2022-11-14T10:29:53;8.90;99.90
5834;DHT22;2943;48.012;10.968;2022-11-14T10:32:33;8.90;99.90
5834;DHT22;2943;48.012;10.968;2022-11-14T10:35:09;9.00;99.90
5834;DHT22;2943;48.012;10.968;2022-11-14T10:37:43;9.10;99.90
5834;DHT22;2943;48.012;10.968;2022-11-14T10:40:17;9.20;99.90
5834;DHT22;2943;48.012;10.968;2022-11-14T10:42:47;9.30;99.90
5834;DHT22;2943;48.012;10.968;2022-11-14T10:45:21;9.30;99.90
5834;DHT22;2943;48.012;10.968;2022-11-14T10:47:53;9.50;99.90
5834;DHT22;2943;48.012;10.968;2022-11-14T10:50:25;9.60;99.90
5834;DHT22;2943;48.012;10.968;2022-11-14T10:52:56;9.70;99.90
5834;DHT22;2943;48.012;10.968;2022-11-14T10:55:25;9.90;99.90
5834;DHT22;2943;48.012;10.968;2022-11-14T10:57:52;9.90;99.90
5834;DHT22;2943;48.012;10.968;2022-11-14T11:00:21;10.00;99.90
5834;DHT22;2943;48.012;10.968;2022-11-14T11:02:50;10.00;99.90
5834;DHT22;2943;48.012;10.968;2022-11-14T11:05:19;10.00;99.90
5834;DHT22;2943;48.012;10.968;2022-11-14T11:07:47;10.10;99.90
5834;DHT22;2943;48.012;10.968;2022-11-14T11:10:32;10.00;99.90
5834;DHT22;2943;48.012;10.968;2022-11-14T11:13:30;10.00;99.90
5834;DHT22;2943;48.012;10.968;2022-11-14T11:15:59;10.10;99.90
5834;DHT22;2943;48.012;10.968;2022-11-14T11:18:28;10.10;99.90
5834;DHT22;2943;48.012;10.968;2022-11-14T11:21:08;10.20;99.90
5834;DHT22;2943;48.012;10.968;2022-11-14T11:23:47;10.30;99.90
5834;DHT22;2943;48.012;10.968;2022-11-14T11:26:20;10.30;99.90
5834;DHT22;2943;48.012;10.968;2022-11-14T11:29:05;10.30;99.90
5834;DHT22;2943;48.012;10.968;2022-11-14T11:31:49;10.40;99.90
5834;DHT22;2943;48.012;10.968;2022-11-14T11:34:21;10.40;99.90
5834;DHT22;2943;48.012;10.968;2022-11-14T11:36:52;10.40;99.90
5834;DHT22;2943;48.012;10.968;2022-11-14T11:39:25;10.50;99.90
5834;DHT22;2943;48.012;10.968;2022-11-14T11:41:55;10.50;99.90
5834;DHT22;2943;48.012;10.968;2022-11-14T11:44:26;10.60;99.90
5834;DHT22;2943;48.012;10.968;2022-11-14T11:46:57;10.60;99.90
5834;DHT22;2943;48.012;10.968;2022-11-14T11:49:34;10.70;99.90
5834;DHT22;2943;48.012;10.968;2022-11-14T11:52:04;10.70;99.90
5834;DHT22;2943;48.012;10.968;2022-11-14T11:54:46;10.80;99.90
5834;DHT22;2943;48.012;10.968;2022-11-14T11:57:16;10.80;99.90
5834;DHT22;2943;48.012;10.968;2022-11-14T11:59:47;10.90;99.90
5834;DHT22;2943;48.012;10.968;2022-11-14T12:02:20;10.90;99.90
5834;DHT22;2943;48.012;10.968;2022-11-14T12:04:50;10.90;99.90
5834;DHT22;2943;48.012;10.968;2022-11-14T12:07:18;11.00;99.90
5834;DHT22;2943;48.012;10.968;2022-11-14T12:09:49;11.10;99.90
5834;DHT22;2943;48.012;10.968;2022-11-14T12:12:25;11.10;99.90
5834;DHT22;2943;48.012;10.968;2022-11-14T12:15:05;11.10;99.90
5834;DHT22;2943;48.012;10.968;2022-11-14T12:20:50;11.10;99.90
5834;DHT22;2943;48.012;10.968;2022-11-14T12:32:27;11.20;99.90
5834;DHT22;2943;48.012;10.968;2022-11-14T12:34:56;12.00;99.90
5834;DHT22;2943;48.012;10.968;2022-11-14T12:37:31;12.50;99.90
5834;DHT22;2943;48.012;10.968;2022-11-14T12:40:01;12.80;99.90
5834;DHT22;2943;48.012;10.968;2022-11-14T12:42:31;13.40;99.90
5834;DHT22;2943;48.012;10.968;2022-11-14T12:44:57;13.60;99.90
5834;DHT22;2943;48.012;10.968;2022-11-14T12:47:25;13.50;99.90
5834;DHT22;2943;48.012;10.968;2022-11-14T12:50:09;13.30;99.90
5834;DHT22;2943;48.012;10.968;2022-11-14T12:52:51;13.10;99.90
5834;DHT22;2943;48.012;10.968;2022-11-14T12:55:52;12.90;99.90
5834;DHT22;2943;48.012;10.968;2022-11-14T13:01:23;12.60;99.90
5834;DHT22;2943;48.012;10.968;2022-11-14T13:04:09;12.50;99.90
5834;DHT22;2943;48.012;10.968;2022-11-14T13:06:48;12.40;99.90
5834;DHT22;2943;48.012;10.968;2022-11-14T13:09:32;12.30;99.90
5834;DHT22;2943;48.012;10.968;2022-11-14T13:12:17;12.30;99.90
5834;DHT22;2943;48.012;10.968;2022-11-14T13:15:20;12.20;99.90
5834;DHT22;2943;48.012;10.968;2022-11-14T13:18:22;12.10;99.90
5834;DHT22;2943;48.012;10.968;2022-11-14T13:21:20;12.10;99.90
5834;DHT22;2943;48.012;10.968;2022-11-14T13:24:02;12.00;99.90
5834;DHT22;2943;48.012;10.968;2022-11-14T13:26:48;12.00;99.90
5834;DHT22;2943;48.012;10.968;2022-11-14T13:35:51;12.10;99.90
5834;DHT22;2943;48.012;10.968;2022-11-14T13:39:12;12.10;99.90
5834;DHT22;2943;48.012;10.968;2022-11-14T13:42:05;12.10;99.90
5834;DHT22;2943;48.012;10.968;2022-11-14T13:48:08;12.10;99.90
5834;DHT22;2943;48.012;10.968;2022-11-14T13:50:39;12.10;99.90
5834;DHT22;2943;48.012;10.968;2022-11-14T13:53:12;12.10;99.90
5834;DHT22;2943;48.012;10.968;2022-11-14T13:55:52;12.00;99.90
5834;DHT22;2943;48.012;10.968;2022-11-14T13:58:29;12.00;99.90
5834;DHT22;2943;48.012;10.968;2022-11-14T14:01:11;11.90;99.90
5834;DHT22;2943;48.012;10.968;2022-11-14T14:03:57;11.90;99.90
5834;DHT22;2943;48.012;10.968;2022-11-14T14:06:39;11.90;99.90
5834;DHT22;2943;48.012;10.968;2022-11-14T14:09:14;11.90;99.90
5834;DHT22;2943;48.012;10.968;2022-11-14T14:12:11;11.90;99.90
5834;DHT22;2943;48.012;10.968;2022-11-14T14:15:02;11.90;99.90
5834;DHT22;2943;48.012;10.968;2022-11-14T14:17:34;11.90;99.90
5834;DHT22;2943;48.012;10.968;2022-11-14T14:20:16;11.90;99.90
5834;DHT22;2943;48.012;10.968;2022-11-14T14:22:55;11.90;99.90
5834;DHT22;2943;48.012;10.968;2022-11-14T14:25:30;11.90;99.90
5834;DHT22;2943;48.012;10.968;2022-11-14T14:28:08;11.90;99.90
5834;DHT22;2943;48.012;10.968;2022-11-14T14:30:37;11.90;99.90
5834;DHT22;2943;48.012;10.968;2022-11-14T14:33:12;11.80;99.90
5834;DHT22;2943;48.012;10.968;2022-11-14T14:35:48;11.80;99.90
5834;DHT22;2943;48.012;10.968;2022-11-14T14:38:24;11.80;99.90
5834;DHT22;2943;48.012;10.968;2022-11-14T14:40:53;11.70;99.90
5834;DHT22;2943;48.012;10.968;2022-11-14T14:43:27;11.60;99.90
5834;DHT22;2943;48.012;10.968;2022-11-14T14:45:56;11.50;99.90
5834;DHT22;2943;48.012;10.968;2022-11-14T14:48:26;11.40;99.90
5834;DHT22;2943;48.012;10.968;2022-11-14T14:50:54;11.20;99.90
5834;DHT22;2943;48.012;10.968;2022-11-14T14:53:24;11.10;99.90
5834;DHT22;2943;48.012;10.968;2022-11-14T14:55:54;11.10;99.90
5834;DHT22;2943;48.012;10.968;2022-11-14T14:58:26;11.00;99.90
5834;DHT22;2943;48.012;10.968;2022-11-14T15:00:57;11.00;99.90
5834;DHT22;2943;48.012;10.968;2022-11-14T15:03:26;11.00;99.90
5834;DHT22;2943;48.012;10.968;2022-11-14T15:05:59;11.00;99.90
5834;DHT22;2943;48.012;10.968;2022-11-14T15:08:29;11.00;99.90
5834;DHT22;2943;48.012;10.968;2022-11-14T15:10:58;10.90;99.90
5834;DHT22;2943;48.012;10.968;2022-11-14T15:13:27;11.00;99.90
5834;DHT22;2943;48.012;10.968;2022-11-14T15:15:55;10.90;99.90
5834;DHT22;2943;48.012;10.968;2022-11-14T15:18:23;10.90;99.90
5834;DHT22;2943;48.012;10.968;2022-11-14T15:21:08;11.00;99.90
5834;DHT22;2943;48.012;10.968;2022-11-14T15:26:03;11.00;99.90
5834;DHT22;2943;48.012;10.968;2022-11-14T15:28:31;11.00;99.90
5834;DHT22;2943;48.012;10.968;2022-11-14T15:31:00;11.00;99.90
5834;DHT22;2943;48.012;10.968;2022-11-14T15:33:28;10.90;99.90
5834;DHT22;2943;48.012;10.968;2022-11-14T15:36:07;10.90;99.90
5834;DHT22;2943;48.012;10.968;2022-11-14T15:38:34;10.80;99.90
5834;DHT22;2943;48.012;10.968;2022-11-14T15:41:15;10.70;99.90
5834;DHT22;2943;48.012;10.968;2022-11-14T15:43:48;10.60;99.90
5834;DHT22;2943;48.012;10.968;2022-11-14T15:46:40;10.50;99.90
5834;DHT22;2943;48.012;10.968;2022-11-14T15:49:09;10.40;99.90
5834;DHT22;2943;48.012;10.968;2022-11-14T15:51:41;10.50;99.90
5834;DHT22;2943;48.012;10.968;2022-11-14T15:54:29;10.60;99.90
5834;DHT22;2943;48.012;10.968;2022-11-14T15:56:59;10.60;99.90
5834;DHT22;2943;48.012;10.968;2022-11-14T15:59:29;10.60;99.90
5834;DHT22;2943;48.012;10.968;2022-11-14T16:02:00;10.50;99.90
5834;DHT22;2943;48.012;10.968;2022-11-14T16:04:31;10.50;99.90
5834;DHT22;2943;48.012;10.968;2022-11-14T16:06:59;10.50;99.90
5834;DHT22;2943;48.012;10.968;2022-11-14T16:09:25;10.50;99.90
5834;DHT22;2943;48.012;10.968;2022-11-14T16:11:52;10.60;99.90
5834;DHT22;2943;48.012;10.968;2022-11-14T16:14:21;10.50;99.90
5834;DHT22;2943;48.012;10.968;2022-11-14T16:16:47;10.60;99.90
5834;DHT22;2943;48.012;10.968;2022-11-14T16:19:15;10.50;99.90
5834;DHT22;2943;48.012;10.968;2022-11-14T16:21:42;10.50;99.90
5834;DHT22;2943;48.012;10.968;2022-11-14T16:24:13;10.50;99.90
5834;DHT22;2943;48.012;10.968;2022-11-14T16:26:41;10.50;99.90
5834;DHT22;2943;48.012;10.968;2022-11-14T16:29:08;10.60;99.90
5834;DHT22;2943;48.012;10.968;2022-11-14T16:31:37;10.50;99.90
5834;DHT22;2943;48.012;10.968;2022-11-14T16:34:04;10.50;99.90
5834;DHT22;2943;48.012;10.968;2022-11-14T16:36:32;10.50;99.90
5834;DHT22;2943;48.012;10.968;2022-11-14T16:39:00;10.50;99.90
5834;DHT22;2943;48.012;10.968;2022-11-14T16:41:27;10.50;99.90
5834;DHT22;2943;48.012;10.968;2022-11-14T16:43:55;10.50;99.90
5834;DHT22;2943;48.012;10.968;2022-11-14T16:46:23;10.50;99.90
5834;DHT22;2943;48.012;10.968;2022-11-14T16:48:52;10.50;99.90
5834;DHT22;2943;48.012;10.968;2022-11-14T16:51:19;10.50;99.90